createdAt,value
2023-04-08T00:01:35.090Z,100548.05
2023-04-08T00:04:05.103Z,100545.97
2023-04-08T00:06:39.420Z,100545.45
2023-04-08T00:09:08.282Z,100546.14
2023-04-08T00:11:38.328Z,100542.73
2023-04-08T00:14:08.833Z,100545.91
2023-04-08T00:16:38.046Z,100549.77
2023-04-08T00:19:07.187Z,100546.37
2023-04-08T00:21:37.981Z,100546.11
2023-04-08T00:24:07.383Z,100540.05
2023-04-08T00:26:36.285Z,100532.91
2023-04-08T00:29:05.780Z,100530.63
2023-04-08T00:31:35.984Z,100531.98
2023-04-08T00:34:04.827Z,100535.16
2023-04-08T00:36:36.732Z,100532.94
2023-04-08T00:39:07.196Z,100529.33
2023-04-08T00:41:37.858Z,100526.19
2023-04-08T00:44:06.815Z,100523.89
2023-04-08T00:46:39.462Z,100522.55
2023-04-08T00:49:08.581Z,100520.10
2023-04-08T00:51:37.505Z,100515.28
2023-04-08T00:54:08.212Z,100516.52
2023-04-08T00:56:37.991Z,100520.55
2023-04-08T00:59:06.893Z,100518.70
2023-04-08T01:01:51.997Z,100513.02
2023-04-08T01:04:45.517Z,100518.67
2023-04-08T01:07:37.187Z,100516.19
2023-04-08T01:10:16.736Z,100514.31
2023-04-08T01:12:52.668Z,100516.40
2023-04-08T01:15:21.661Z,100517.64
2023-04-08T01:17:54.467Z,100515.98
2023-04-08T01:20:27.904Z,100517.30
2023-04-08T01:23:09.049Z,100521.55
2023-04-08T01:25:38.990Z,100526.56
2023-04-08T01:28:13.845Z,100524.78
2023-04-08T01:30:44.474Z,100526.29
2023-04-08T01:33:14.807Z,100525.05
2023-04-08T01:35:47.761Z,100521.77
2023-04-08T01:38:19.654Z,100524.52
2023-04-08T01:40:49.613Z,100524.88
2023-04-08T01:43:18.752Z,100527.16
2023-04-08T01:45:48.618Z,100526.39
2023-04-08T01:48:17.597Z,100524.19
2023-04-08T01:50:47.835Z,100525.48
2023-04-08T01:53:16.915Z,100524.23
2023-04-08T01:55:46.530Z,100522.52
2023-04-08T01:58:19.721Z,100521.86
2023-04-08T02:00:50.178Z,100518.77
2023-04-08T02:03:20.029Z,100517.60
2023-04-08T02:05:49.948Z,100521.57
2023-04-08T02:08:18.858Z,100522.55
2023-04-08T02:10:48.388Z,100521.73
2023-04-08T02:13:18.176Z,100525.98
2023-04-08T02:15:52.320Z,100530.60
2023-04-08T02:18:28.693Z,100530.30
2023-04-08T02:21:16.606Z,100527.27
2023-04-08T02:23:50.483Z,100528.40
2023-04-08T02:26:19.853Z,100523.09
2023-04-08T02:28:50.085Z,100520.86
2023-04-08T02:31:19.364Z,100518.08
2023-04-08T02:33:49.505Z,100516.96
2023-04-08T02:36:18.330Z,100516.23
2023-04-08T02:38:50.547Z,100521.25
2023-04-08T02:41:21.732Z,100523.25
2023-04-08T02:43:55.782Z,100520.58
2023-04-08T02:46:24.773Z,100522.73
2023-04-08T02:48:54.006Z,100525.98
2023-04-08T02:51:23.225Z,100532.11
2023-04-08T02:53:54.739Z,100531.89
2023-04-08T02:56:23.719Z,100529.30
2023-04-08T02:58:52.931Z,100534.00
2023-04-08T03:01:22.292Z,100535.08
2023-04-08T03:03:51.993Z,100535.66
2023-04-08T03:06:21.153Z,100534.32
2023-04-08T03:08:50.392Z,100532.83
2023-04-08T03:11:22.723Z,100534.19
2023-04-08T03:13:51.613Z,100533.45
2023-04-08T03:16:20.456Z,100535.03
2023-04-08T03:18:54.512Z,100534.80
2023-04-08T03:21:23.536Z,100538.30
2023-04-08T03:23:52.549Z,100536.39
2023-04-08T03:26:21.525Z,100530.58
2023-04-08T03:28:51.353Z,100530.02
2023-04-08T03:31:21.634Z,100532.98
2023-04-08T03:33:50.813Z,100532.67
2023-04-08T03:36:20.169Z,100527.96
2023-04-08T03:38:49.072Z,100531.81
2023-04-08T03:41:18.392Z,100539.11
2023-04-08T03:43:47.573Z,100540.80
2023-04-08T03:46:16.375Z,100539.11
2023-04-08T03:48:45.963Z,100542.09
2023-04-08T03:51:14.753Z,100542.54
2023-04-08T03:53:45.748Z,100547.90
2023-04-08T03:56:14.784Z,100550.11
2023-04-08T03:58:44.112Z,100554.04
2023-04-08T04:01:13.135Z,100552.62
2023-04-08T04:03:42.443Z,100552.69
2023-04-08T04:06:14.061Z,100548.33
2023-04-08T04:08:43.151Z,100550.37
2023-04-08T04:11:12.787Z,100550.95
2023-04-08T04:13:41.618Z,100552.55
2023-04-08T04:16:11.740Z,100552.17
2023-04-08T04:18:41.904Z,100554.23
2023-04-08T04:21:11.802Z,100554.84
2023-04-08T04:23:41.026Z,100553.43
2023-04-08T04:26:10.573Z,100557.05
2023-04-08T04:28:39.505Z,100559.70
2023-04-08T04:31:22.231Z,100558.58
2023-04-08T04:33:51.289Z,100562.46
2023-04-08T04:36:20.186Z,100562.17
2023-04-08T04:38:50.489Z,100569.39
2023-04-08T04:41:19.859Z,100577.16
2023-04-08T04:43:49.003Z,100577.04
2023-04-08T04:46:24.685Z,100574.55
2023-04-08T04:48:54.072Z,100580.65
2023-04-08T04:51:23.079Z,100581.55
2023-04-08T04:53:55.369Z,100584.67
2023-04-08T04:56:24.593Z,100586.54
2023-04-08T04:58:58.579Z,100592.42
2023-04-08T05:01:29.530Z,100595.05
2023-04-08T05:03:58.681Z,100597.04
2023-04-08T05:06:32.024Z,100598.08
2023-04-08T05:09:02.147Z,100596.30
2023-04-08T05:11:31.092Z,100591.73
2023-04-08T05:14:06.099Z,100592.45
2023-04-08T05:16:39.631Z,100590.41
2023-04-08T05:19:08.347Z,100593.95
2023-04-08T05:21:40.084Z,100593.23
2023-04-08T05:24:09.548Z,100594.43
2023-04-08T05:26:38.310Z,100592.28
2023-04-08T05:29:09.702Z,100596.52
2023-04-08T05:31:39.665Z,100593.80
2023-04-08T05:34:09.101Z,100599.91
2023-04-08T05:36:38.035Z,100592.80
2023-04-08T05:39:10.754Z,100595.17
2023-04-08T05:41:41.952Z,100593.45
2023-04-08T05:44:11.508Z,100595.10
2023-04-08T05:46:40.685Z,100592.63
2023-04-08T05:49:09.557Z,100591.64
2023-04-08T05:51:40.088Z,100590.16
2023-04-08T05:54:08.897Z,100589.63
2023-04-08T05:56:37.908Z,100592.05
2023-04-08T05:59:07.240Z,100594.77
2023-04-08T06:01:36.364Z,100595.89
2023-04-08T06:04:05.781Z,100595.36
2023-04-08T06:06:34.837Z,100599.48
2023-04-08T06:09:03.772Z,100599.04
2023-04-08T06:11:35.305Z,100596.55
2023-04-08T06:14:04.150Z,100599.02
2023-04-08T06:16:33.470Z,100598.70
2023-04-08T06:19:04.311Z,100600.11
2023-04-08T06:21:33.651Z,100598.31
2023-04-08T06:24:02.379Z,100602.87
2023-04-08T06:26:33.620Z,100600.91
2023-04-08T06:29:03.438Z,100606.90
2023-04-08T06:31:35.361Z,100608.88
2023-04-08T06:34:04.692Z,100610.51
2023-04-08T06:36:33.668Z,100614.43
2023-04-08T06:39:02.730Z,100614.08
2023-04-08T06:41:31.667Z,100619.95
2023-04-08T06:44:03.494Z,100621.05
2023-04-08T06:46:32.259Z,100625.39
2023-04-08T06:49:01.463Z,100629.47
2023-04-08T06:51:31.836Z,100629.60
2023-04-08T06:54:00.931Z,100628.95
2023-04-08T06:56:30.184Z,100628.95
2023-04-08T06:58:59.721Z,100633.75
2023-04-08T07:01:28.633Z,100636.63
2023-04-08T07:03:58.050Z,100631.59
2023-04-08T07:06:27.092Z,100638.04
2023-04-08T07:08:56.392Z,100634.25
2023-04-08T07:11:26.074Z,100640.75
2023-04-08T07:13:54.983Z,100642.73
2023-04-08T07:16:25.382Z,100645.05
2023-04-08T07:18:54.418Z,100645.11
2023-04-08T07:21:23.493Z,100647.16
2023-04-08T07:23:53.760Z,100645.36
2023-04-08T07:26:22.882Z,100644.98
2023-04-08T07:28:53.477Z,100653.29
2023-04-08T07:31:22.782Z,100650.44
2023-04-08T07:33:51.627Z,100644.78
2023-04-08T07:36:21.456Z,100653.45
2023-04-08T07:38:51.248Z,100658.16
2023-04-08T07:41:21.304Z,100651.66
2023-04-08T07:43:50.588Z,100656.48
2023-04-08T07:46:20.635Z,100652.19
2023-04-08T07:48:49.966Z,100652.56
2023-04-08T07:51:20.304Z,100650.68
2023-04-08T07:53:51.436Z,100648.40
2023-04-08T07:56:20.172Z,100650.42
2023-04-08T07:58:52.847Z,100647.42
2023-04-08T08:01:23.354Z,100646.46
2023-04-08T08:03:53.762Z,100639.95
2023-04-08T08:06:30.200Z,100643.30
2023-04-08T08:09:00.671Z,100639.54
2023-04-08T08:11:30.095Z,100639.83
2023-04-08T08:14:08.418Z,100644.37
2023-04-08T08:16:39.082Z,100643.67
2023-04-08T08:19:09.092Z,100643.29
2023-04-08T08:21:42.813Z,100640.79
2023-04-08T08:24:12.176Z,100640.76
2023-04-08T08:26:41.102Z,100641.23
2023-04-08T08:29:09.976Z,100645.83
2023-04-08T08:31:39.985Z,100639.48
2023-04-08T08:34:08.850Z,100633.98
2023-04-08T08:36:37.727Z,100634.71
2023-04-08T08:39:06.691Z,100635.89
2023-04-08T08:41:37.070Z,100632.61
2023-04-08T08:44:07.052Z,100636.69
2023-04-08T08:46:36.212Z,100637.98
2023-04-08T08:49:06.363Z,100636.86
2023-04-08T08:51:35.302Z,100635.25
2023-04-08T08:54:04.944Z,100634.64
2023-04-08T08:56:34.613Z,100635.37
2023-04-08T08:59:04.230Z,100634.69
2023-04-08T09:01:34.673Z,100635.44
2023-04-08T09:04:18.941Z,100636.30
2023-04-08T09:07:05.206Z,100638.98
2023-04-08T09:09:50.689Z,100634.45
2023-04-08T09:12:23.196Z,100638.39
2023-04-08T09:14:52.764Z,100636.23
2023-04-08T09:17:39.275Z,100639.54
2023-04-08T09:20:15.421Z,100635.78
2023-04-08T09:22:58.033Z,100637.84
2023-04-08T09:25:32.959Z,100635.15
2023-04-08T09:28:03.561Z,100639.31
2023-04-08T09:30:32.855Z,100638.64
2023-04-08T09:33:07.785Z,100634.95
2023-04-08T09:35:40.357Z,100638.46
2023-04-08T09:38:09.353Z,100633.14
2023-04-08T09:40:38.644Z,100638.27
2023-04-08T09:43:07.938Z,100642.81
2023-04-08T09:45:36.853Z,100638.90
2023-04-08T09:48:19.657Z,100640.92
2023-04-08T09:50:50.164Z,100640.51
2023-04-08T09:53:31.102Z,100641.41
2023-04-08T09:56:00.166Z,100643.85
2023-04-08T09:59:00.878Z,100640.90
2023-04-08T10:01:38.570Z,100645.12
2023-04-08T10:04:15.336Z,100646.55
2023-04-08T10:06:54.924Z,100651.70
2023-04-08T10:09:23.760Z,100647.48
2023-04-08T10:11:54.010Z,100652.24
2023-04-08T10:14:28.458Z,100656.08
2023-04-08T10:17:24.765Z,100655.70
2023-04-08T10:19:53.754Z,100654.36
2023-04-08T10:22:49.326Z,100656.98
2023-04-08T10:25:19.274Z,100651.98
2023-04-08T10:27:49.123Z,100652.77
2023-04-08T10:30:33.781Z,100649.45
2023-04-08T10:33:03.937Z,100649.11
2023-04-08T10:35:35.885Z,100648.98
2023-04-08T10:38:04.739Z,100647.73
2023-04-08T10:40:41.930Z,100647.76
2023-04-08T10:43:11.564Z,100645.34
2023-04-08T10:45:43.107Z,100644.67
2023-04-08T10:48:19.198Z,100646.45
2023-04-08T10:50:55.592Z,100643.14
2023-04-08T10:53:29.840Z,100639.41
2023-04-08T10:56:08.998Z,100634.36
2023-04-08T10:58:52.031Z,100635.02
2023-04-08T11:01:21.644Z,100632.52
2023-04-08T11:03:51.163Z,100635.47
2023-04-08T11:06:23.924Z,100630.02
2023-04-08T11:08:53.385Z,100631.73
2023-04-08T11:11:23.166Z,100626.30
2023-04-08T11:13:54.168Z,100623.31
2023-04-08T11:16:24.170Z,100622.09
2023-04-08T11:18:53.100Z,100621.74
2023-04-08T11:21:24.274Z,100619.36
2023-04-08T11:23:54.242Z,100620.56
2023-04-08T11:26:23.235Z,100620.45
2023-04-08T11:28:55.615Z,100615.98
2023-04-08T11:31:25.211Z,100611.73
2023-04-08T11:33:57.108Z,100606.74
2023-04-08T11:36:27.797Z,100607.41
2023-04-08T11:38:56.635Z,100607.67
2023-04-08T11:41:37.285Z,100599.28
2023-04-08T11:44:07.461Z,100591.15
2023-04-08T11:46:38.163Z,100593.64
2023-04-08T11:49:08.344Z,100590.06
2023-04-08T11:51:55.614Z,100585.26
2023-04-08T11:54:29.383Z,100579.48
2023-04-08T11:56:58.729Z,100579.43
2023-04-08T11:59:29.659Z,100572.37
2023-04-08T12:01:59.543Z,100574.01
2023-04-08T12:04:28.950Z,100575.22
2023-04-08T12:06:59.437Z,100569.50
2023-04-08T12:09:28.804Z,100573.53
2023-04-08T12:11:59.067Z,100571.43
2023-04-08T12:14:29.644Z,100567.32
2023-04-08T12:16:59.256Z,100566.50
2023-04-08T12:19:34.446Z,100570.92
2023-04-08T12:22:04.897Z,100575.80
2023-04-08T12:24:33.739Z,100583.55
2023-04-08T12:27:10.875Z,100589.24
2023-04-08T12:29:40.319Z,100596.36
2023-04-08T12:32:09.055Z,100593.52
2023-04-08T12:34:38.542Z,100591.61
2023-04-08T12:37:07.276Z,100586.42
2023-04-08T12:39:41.273Z,100580.41
2023-04-08T12:42:10.281Z,100577.76
2023-04-08T12:44:39.103Z,100573.29
2023-04-08T12:47:08.658Z,100567.09
2023-04-08T12:49:48.867Z,100568.35
2023-04-08T12:52:23.756Z,100565.75
2023-04-08T12:54:52.764Z,100562.88
2023-04-08T12:57:21.764Z,100562.88
2023-04-08T12:59:51.435Z,100563.58
2023-04-08T13:02:20.444Z,100575.70
2023-04-08T13:04:50.149Z,100582.43
2023-04-08T13:07:18.993Z,100593.61
2023-04-08T13:09:47.847Z,100613.61
2023-04-08T13:12:17.635Z,100620.67
2023-04-08T13:14:46.908Z,100627.70
2023-04-08T13:17:16.157Z,100635.55
2023-04-08T13:19:44.925Z,100641.64
2023-04-08T13:22:14.654Z,100642.64
2023-04-08T13:24:47.379Z,100642.27
2023-04-08T13:27:16.378Z,100639.89
2023-04-08T13:29:51.500Z,100640.37
2023-04-08T13:32:21.216Z,100638.67
2023-04-08T13:34:50.058Z,100633.86
2023-04-08T13:37:18.914Z,100634.16
2023-04-08T13:39:47.851Z,100629.58
2023-04-08T13:42:16.588Z,100625.28
2023-04-08T13:44:46.477Z,100619.48
2023-04-08T13:47:15.406Z,100611.36
2023-04-08T13:49:44.979Z,100608.58
2023-04-08T13:52:13.835Z,100603.73
2023-04-08T13:54:49.681Z,100594.31
2023-04-08T13:57:18.593Z,100595.29
2023-04-08T13:59:47.739Z,100594.00
2023-04-08T14:02:17.363Z,100588.58
2023-04-08T14:04:46.561Z,100584.72
2023-04-08T14:07:15.597Z,100582.14
2023-04-08T14:09:47.714Z,100579.55
2023-04-08T14:12:16.510Z,100580.59
2023-04-08T14:14:51.640Z,100580.13
2023-04-08T14:17:20.908Z,100580.60
2023-04-08T14:19:51.401Z,100583.17
2023-04-08T14:22:21.112Z,100580.14
2023-04-08T14:24:50.184Z,100574.34
2023-04-08T14:27:19.118Z,100571.84
2023-04-08T14:29:51.234Z,100568.73
2023-04-08T14:32:20.219Z,100566.70
2023-04-08T14:34:49.354Z,100565.11
2023-04-08T14:37:18.768Z,100566.40
2023-04-08T14:39:47.585Z,100570.15
2023-04-08T14:42:17.619Z,100570.38
2023-04-08T14:44:46.938Z,100569.88
2023-04-08T14:47:16.265Z,100572.31
2023-04-08T14:49:45.877Z,100571.23
2023-04-08T14:52:20.404Z,100573.80
2023-04-08T14:54:50.580Z,100570.69
2023-04-08T14:57:20.031Z,100573.89
2023-04-08T14:59:49.566Z,100580.48
2023-04-08T15:02:18.684Z,100589.57
2023-04-08T15:04:47.905Z,100595.30
2023-04-08T15:07:17.766Z,100604.49
2023-04-08T15:09:47.063Z,100611.77
2023-04-08T15:12:15.980Z,100611.10
2023-04-08T15:14:46.353Z,100612.14
2023-04-08T15:17:15.857Z,100610.52
2023-04-08T15:19:44.770Z,100610.42
2023-04-08T15:22:13.626Z,100610.68
2023-04-08T15:24:43.053Z,100613.09
2023-04-08T15:27:20.031Z,100616.78
2023-04-08T15:29:48.995Z,100617.80
2023-04-08T15:32:17.890Z,100621.98
2023-04-08T15:34:48.024Z,100624.21
2023-04-08T15:37:17.020Z,100628.58
2023-04-08T15:39:46.429Z,100629.02
2023-04-08T15:42:15.694Z,100624.86
2023-04-08T15:44:44.617Z,100618.83
2023-04-08T15:47:13.999Z,100617.80
2023-04-08T15:49:42.920Z,100615.29
2023-04-08T15:52:12.149Z,100617.64
2023-04-08T15:54:41.022Z,100616.41
2023-04-08T15:57:10.355Z,100623.58
2023-04-08T15:59:43.478Z,100621.50
2023-04-08T16:02:32.963Z,100624.15
2023-04-08T16:05:02.082Z,100617.52
2023-04-08T16:07:31.711Z,100617.33
2023-04-08T16:10:00.899Z,100618.34
2023-04-08T16:12:30.413Z,100620.83
2023-04-08T16:14:59.278Z,100620.37
2023-04-08T16:17:28.492Z,100622.97
2023-04-08T16:19:58.178Z,100627.05
2023-04-08T16:22:30.400Z,100622.45
2023-04-08T16:24:59.085Z,100623.36
2023-04-08T16:27:28.706Z,100623.85
2023-04-08T16:29:57.995Z,100626.20
2023-04-08T16:32:33.085Z,100630.42
2023-04-08T16:35:02.028Z,100628.84
2023-04-08T16:37:31.541Z,100633.10
2023-04-08T16:40:01.003Z,100635.02
2023-04-08T16:42:30.218Z,100637.45
2023-04-08T16:45:00.110Z,100638.92
2023-04-08T16:47:29.371Z,100639.09
2023-04-08T16:49:58.732Z,100641.52
2023-04-08T16:52:29.829Z,100638.92
2023-04-08T16:55:06.252Z,100642.97
2023-04-08T16:57:36.913Z,100636.48
2023-04-08T17:00:06.648Z,100648.02
2023-04-08T17:02:36.088Z,100652.70
2023-04-08T17:05:05.372Z,100655.00
2023-04-08T17:07:34.596Z,100661.93
2023-04-08T17:10:05.511Z,100669.52
2023-04-08T17:12:36.271Z,100663.64
2023-04-08T17:15:08.304Z,100666.02
2023-04-08T17:17:39.129Z,100668.95
2023-04-08T17:20:09.024Z,100674.87
2023-04-08T17:22:43.095Z,100677.08
2023-04-08T17:25:12.600Z,100684.55
2023-04-08T17:27:42.031Z,100688.73
2023-04-08T17:30:14.628Z,100695.96
2023-04-08T17:32:46.315Z,100695.03
2023-04-08T17:35:15.625Z,100698.06
2023-04-08T17:37:44.978Z,100704.07
2023-04-08T17:40:14.265Z,100709.98
2023-04-08T17:42:43.402Z,100704.29
2023-04-08T17:45:13.746Z,100707.09
2023-04-08T17:47:43.867Z,100709.21
2023-04-08T17:50:13.806Z,100707.92
2023-04-08T17:52:44.807Z,100718.14
2023-04-08T17:55:14.681Z,100716.48
2023-04-08T17:57:47.494Z,100722.17
2023-04-08T18:00:16.671Z,100727.92
2023-04-08T18:05:16.295Z,100731.45
2023-04-08T18:07:45.937Z,100733.96
2023-04-08T18:10:14.954Z,100736.98
2023-04-08T18:12:44.791Z,100736.95
2023-04-08T18:15:13.804Z,100740.17
2023-04-08T18:17:46.541Z,100736.85
2023-04-08T18:20:15.729Z,100735.44
2023-04-08T18:22:44.780Z,100737.11
2023-04-08T18:25:13.605Z,100736.03
2023-04-08T18:27:42.784Z,100732.66
2023-04-08T18:30:12.577Z,100726.86
2023-04-08T18:32:42.229Z,100731.88
2023-04-08T18:35:11.618Z,100738.42
2023-04-08T18:37:41.838Z,100738.45
2023-04-08T18:40:11.432Z,100739.46
2023-04-08T18:42:43.219Z,100735.29
2023-04-08T18:45:12.181Z,100739.00
2023-04-08T18:47:41.932Z,100736.42
2023-04-08T18:50:11.434Z,100736.59
2023-04-08T18:52:41.308Z,100736.02
2023-04-08T18:55:10.588Z,100732.84
2023-04-08T18:57:40.864Z,100730.44
2023-04-08T19:00:10.018Z,100728.86
2023-04-08T19:02:39.627Z,100728.35
2023-04-08T19:05:09.726Z,100725.67
2023-04-08T19:07:39.134Z,100722.20
2023-04-08T19:10:12.063Z,100723.41
2023-04-08T19:12:42.741Z,100718.98
2023-04-08T19:15:12.015Z,100717.80
2023-04-08T19:17:42.354Z,100717.00
2023-04-08T19:20:12.419Z,100713.71
2023-04-08T19:22:41.381Z,100713.45
2023-04-08T19:25:11.755Z,100711.02
2023-04-08T19:27:41.439Z,100709.32
2023-04-08T19:30:12.034Z,100709.27
2023-04-08T19:32:43.532Z,100709.91
2023-04-08T19:35:13.013Z,100705.29
2023-04-08T19:37:42.671Z,100706.94
2023-04-08T19:40:12.127Z,100703.02
2023-04-08T19:42:41.397Z,100701.42
2023-04-08T19:45:11.251Z,100699.79
2023-04-08T19:47:43.712Z,100705.17
2023-04-08T19:50:12.851Z,100699.35
2023-04-08T19:52:41.785Z,100697.90
2023-04-08T19:55:11.333Z,100697.16
2023-04-08T19:57:41.926Z,100697.09
2023-04-08T20:00:14.033Z,100694.40
2023-04-08T20:02:44.800Z,100699.84
2023-04-08T20:05:15.156Z,100700.41
2023-04-08T20:07:44.547Z,100694.33
2023-04-08T20:10:13.921Z,100692.02
2023-04-08T20:12:42.991Z,100689.63
2023-04-08T20:15:24.643Z,100695.28
2023-04-08T20:17:54.212Z,100698.77
2023-04-08T20:20:27.694Z,100700.73
2023-04-08T20:22:58.213Z,100698.17
2023-04-08T20:25:27.624Z,100699.70
2023-04-08T20:28:01.128Z,100699.52
2023-04-08T20:30:30.950Z,100694.33
2023-04-08T20:33:00.207Z,100693.16
2023-04-08T20:35:29.268Z,100692.77
2023-04-08T20:37:58.961Z,100695.46
2023-04-08T20:40:44.700Z,100696.81
2023-04-08T20:43:14.682Z,100698.36
2023-04-08T20:45:45.139Z,100694.25
2023-04-08T20:48:14.213Z,100692.54
2023-04-08T20:50:43.551Z,100695.54
2023-04-08T20:53:14.929Z,100697.37
2023-04-08T20:55:44.861Z,100699.09
2023-04-08T20:58:14.159Z,100698.63
2023-04-08T21:00:43.843Z,100691.73
2023-04-08T21:03:14.477Z,100692.45
2023-04-08T21:05:47.278Z,100693.97
2023-04-08T21:08:17.510Z,100696.13
2023-04-08T21:10:46.680Z,100688.34
2023-04-08T21:13:16.383Z,100691.41
2023-04-08T21:15:47.492Z,100694.56
2023-04-08T21:18:16.796Z,100693.68
2023-04-08T21:20:46.056Z,100699.00
2023-04-08T21:23:15.824Z,100696.87
2023-04-08T21:25:45.279Z,100697.19
2023-04-08T21:28:14.863Z,100700.52
2023-04-08T21:30:44.782Z,100698.92
2023-04-08T21:33:13.988Z,100700.77
2023-04-08T21:35:43.944Z,100700.47
2023-04-08T21:38:13.324Z,100697.88
2023-04-08T21:40:43.177Z,100695.22
2023-04-08T21:43:12.702Z,100694.89
2023-04-08T21:45:42.067Z,100693.41
2023-04-08T21:48:11.395Z,100693.22
2023-04-08T21:50:42.175Z,100692.20
2023-04-08T21:53:12.328Z,100696.42
2023-04-08T21:55:42.440Z,100693.58
2023-04-08T21:58:12.864Z,100693.41
2023-04-08T22:00:42.264Z,100695.38
2023-04-08T22:03:12.581Z,100692.35
2023-04-08T22:05:41.753Z,100691.69
2023-04-08T22:08:15.720Z,100692.20
2023-04-08T22:10:46.197Z,100693.45
2023-04-08T22:13:17.792Z,100696.89
2023-04-08T22:15:49.769Z,100698.91
2023-04-08T22:18:19.164Z,100701.90
2023-04-08T22:20:48.326Z,100700.29
2023-04-08T22:23:17.869Z,100699.84
2023-04-08T22:25:51.168Z,100698.98
2023-04-08T22:28:25.385Z,100697.52
2023-04-08T22:30:57.541Z,100702.77
2023-04-08T22:33:31.117Z,100709.70
2023-04-08T22:36:00.333Z,100706.59
2023-04-08T22:38:32.308Z,100705.41
2023-04-08T22:41:02.033Z,100704.01
2023-04-08T22:43:39.808Z,100701.08
2023-04-08T22:46:08.967Z,100701.58
2023-04-08T22:48:38.356Z,100698.91
2023-04-08T22:51:08.942Z,100700.41
2023-04-08T22:53:38.671Z,100707.99
2023-04-08T22:56:08.412Z,100709.16
2023-04-08T22:58:41.737Z,100703.61
2023-04-08T23:01:15.391Z,100702.99
2023-04-08T23:03:45.608Z,100701.61
2023-04-08T23:06:18.303Z,100695.92
2023-04-08T23:08:48.791Z,100692.46
2023-04-08T23:11:18.562Z,100692.16
2023-04-08T23:13:55.641Z,100690.61
2023-04-08T23:16:25.199Z,100692.00
2023-04-08T23:18:54.746Z,100694.19
2023-04-08T23:21:27.625Z,100689.70
2023-04-08T23:23:57.210Z,100692.23
2023-04-08T23:26:27.140Z,100689.61
2023-04-08T23:28:56.843Z,100688.20
2023-04-08T23:31:26.348Z,100689.95
2023-04-08T23:34:06.117Z,100689.33
2023-04-08T23:36:46.042Z,100688.95
2023-04-08T23:39:15.436Z,100683.66
2023-04-08T23:41:44.510Z,100685.52
2023-04-08T23:44:14.729Z,100683.02
2023-04-08T23:46:44.140Z,100686.31
2023-04-08T23:49:13.914Z,100684.84
2023-04-08T23:51:43.774Z,100683.58
2023-04-08T23:54:13.100Z,100679.73
2023-04-08T23:56:42.976Z,100683.02
2023-04-08T23:59:12.246Z,100682.69
